KCYS Airport (Cheyenne Rgnl/Jerry Olson Field) Information

FAA: CYS - ICAO: KCYS

KCYS Airport Location

State Wyoming
County Laramie
City Cheyenne
KCYS Airport is 1 miles north of Cheyenne, WY.
Latitude 41-09-20.3000N
Longitude 104-48-37.7000W
Elevation 6,159ft

KCYS Airport METARs

METAR KCYS 182353Z 15007KT 10SM CLR 18/M07 A2982 RMK AO2 SLP037 T01781067 10206 20178 56008
Altimeter 29.82"
Temperature 17.8°C (64.0°F)
Wind 150° at 7KT
Clouds Skies are clear.
Visibility 10.0mi
Time observed: 2021-10-18T23:53:00Z

KCYS Airport Details

Status Operational
Activation October 1937
Ownership Public
Usage Public
Chart CHEYENNE
ATC on-site Yes
Beacon schedule sunset-sunrise
Beacon color clear green

KCYS Airport Contacts

Owner CHEYENNE ARPT BOARD
Owner address PO BOX 2210, CHEYENNE, WY 82003
Owner phone 307-634-7071
Manager GREGORY S. FERKEY
Manager address 860 TEN MILE AVE., WISCONSIN RAPIDS, WI 54494
Manager phone 715-325-6156

KCYS Airport (Cheyenne Rgnl/Jerry Olson Field) Radio Frequencies

KCYS (Airport) Radio Frequencies

UNICOM 122.95
Common traffic advisory frequency (CTAF) 118.7